Time;durP1;ratioP1;P1;durP2;ratioP2;P2;SDS_P1;SDS_P2;PMS_P1;PMS_P2;Temp;Humidity;BMP_temperature;BMP_pressure;BME280_temperature;BME280_humidity;BME280_pressure;Samples;Min_cycle;Max_cycle;Signal;HPM_P1;HPM_P2
2021/01/26 00:02:10;;;;;;;;;;;18.80;57.60;;;;;;5073832;28;1320;-64
2021/01/26 00:04:35;;;;;;;;;;;18.80;57.60;;;;;;5070293;28;1237;-65
2021/01/26 00:07:00;;;;;;;;;;;18.80;57.60;;;;;;5071521;28;1388;-65
2021/01/26 00:09:26;;;;;;;;;;;18.80;57.70;;;;;;5072226;28;1255;-67
2021/01/26 00:11:51;;;;;;;;;;;18.80;57.70;;;;;;5070662;28;1914;-64
2021/01/26 00:14:17;;;;;;;;;;;18.80;57.70;;;;;;5082157;28;1388;-66
2021/01/26 00:16:42;;;;;;;;;;;18.80;57.70;;;;;;5091697;28;1819;-64
2021/01/26 00:19:08;;;;;;;;;;;18.80;57.70;;;;;;5092716;28;1696;-64
2021/01/26 00:21:33;;;;;;;;;;;18.70;57.60;;;;;;5078738;28;1213;-65
2021/01/26 00:23:59;;;;;;;;;;;18.70;57.70;;;;;;5082434;28;1286;-65
2021/01/26 00:26:24;;;;;;;;;;;18.70;57.70;;;;;;5071737;28;1493;-65
2021/01/26 00:28:49;;;;;;;;;;;18.70;57.70;;;;;;5072524;28;1410;-66
2021/01/26 00:31:15;;;;;;;;;;;18.70;57.70;;;;;;5072122;28;1949;-64
2021/01/26 00:33:40;;;;;;;;;;;18.70;57.70;;;;;;5082273;28;1332;-64
2021/01/26 00:36:06;;;;;;;;;;;18.70;57.80;;;;;;5093277;28;1387;-65
2021/01/26 00:38:31;;;;;;;;;;;18.70;57.80;;;;;;5093505;28;1692;-67
2021/01/26 00:40:57;;;;;;;;;;;18.70;57.80;;;;;;5093518;28;1692;-65
2021/01/26 00:43:22;;;;;;;;;;;18.70;57.80;;;;;;5093352;28;1374;-67
2021/01/26 00:45:48;;;;;;;;;;;18.70;57.80;;;;;;5093210;28;1722;-65
2021/01/26 00:48:15;;;;;;;;;;;18.70;57.80;;;;;;5084721;28;961;-65
2021/01/26 00:50:40;;;;;;;;;;;18.70;57.70;;;;;;5072887;28;1960;-65
2021/01/26 00:53:06;;;;;;;;;;;18.70;57.70;;;;;;5073160;28;1389;-66
2021/01/26 00:55:31;;;;;;;;;;;18.70;57.80;;;;;;5087523;28;1385;-65
2021/01/26 00:57:57;;;;;;;;;;;18.70;57.80;;;;;;5084007;28;1598;-65
2021/01/26 01:00:24;;;;;;;;;;;18.80;57.70;;;;;;5086503;28;799;-65
2021/01/26 01:02:49;;;;;;;;;;;18.80;57.80;;;;;;5082274;28;890;-64
2021/01/26 01:05:15;;;;;;;;;;;18.80;57.70;;;;;;5092833;28;1360;-63
2021/01/26 01:07:41;;;;;;;;;;;18.80;57.70;;;;;;5074987;28;1637;-64
2021/01/26 01:10:06;;;;;;;;;;;18.80;57.70;;;;;;5078175;28;1379;-65
2021/01/26 01:12:32;;;;;;;;;;;18.80;57.70;;;;;;5093171;28;1907;-66
2021/01/26 01:14:57;;;;;;;;;;;18.80;57.70;;;;;;5091426;28;1744;-64
2021/01/26 01:17:23;;;;;;;;;;;18.80;57.70;;;;;;5093055;28;1129;-64
2021/01/26 01:19:48;;;;;;;;;;;18.80;57.70;;;;;;5091801;28;1651;-66
2021/01/26 01:22:13;;;;;;;;;;;18.80;57.70;;;;;;5093229;28;1689;-64
2021/01/26 01:24:39;;;;;;;;;;;18.80;57.70;;;;;;5092591;28;1295;-64
2021/01/26 01:27:04;;;;;;;;;;;18.80;57.70;;;;;;5079148;28;1484;-65
2021/01/26 01:29:31;;;;;;;;;;;18.80;57.70;;;;;;5071474;28;1395;-64
2021/01/26 01:32:00;;;;;;;;;;;18.80;57.70;;;;;;5071523;28;1898;-64
2021/01/26 01:34:25;;;;;;;;;;;18.80;57.70;;;;;;5072451;28;1577;-64
2021/01/26 01:36:51;;;;;;;;;;;18.80;57.70;;;;;;5072485;28;1416;-64
2021/01/26 01:39:16;;;;;;;;;;;18.80;57.70;;;;;;5072635;28;1436;-64
2021/01/26 01:41:42;;;;;;;;;;;18.80;57.70;;;;;;5076450;28;1641;-64
2021/01/26 01:44:07;;;;;;;;;;;18.80;57.70;;;;;;5076241;28;1427;-64
2021/01/26 01:46:41;;;;;;;;;;;18.80;57.70;;;;;;5075120;28;1410;-66
2021/01/26 01:49:06;;;;;;;;;;;18.80;57.70;;;;;;5058068;28;1681;-64
2021/01/26 01:51:33;;;;;;;;;;;18.80;57.70;;;;;;5076098;28;1894;-66
2021/01/26 01:54:00;;;;;;;;;;;18.80;57.70;;;;;;5077756;28;1350;-65
2021/01/26 01:56:29;;;;;;;;;;;18.80;57.70;;;;;;5095326;28;1434;-65
2021/01/26 01:58:56;;;;;;;;;;;18.80;57.70;;;;;;5081566;28;1405;-67
2021/01/26 02:01:23;;;;;;;;;;;18.80;57.70;;;;;;5084930;28;1212;-65
2021/01/26 02:03:52;;;;;;;;;;;18.80;57.80;;;;;;5074550;28;1259;-67
2021/01/26 02:06:18;;;;;;;;;;;18.80;57.70;;;;;;5068744;28;1185;-65
2021/01/26 02:08:47;;;;;;;;;;;18.80;57.80;;;;;;5078440;28;1480;-65
2021/01/26 02:11:12;;;;;;;;;;;18.80;57.80;;;;;;5087169;28;1905;-65
2021/01/26 02:13:38;;;;;;;;;;;18.80;57.80;;;;;;5090387;28;1723;-65
2021/01/26 02:16:03;;;;;;;;;;;18.70;57.80;;;;;;5075704;28;1211;-67
2021/01/26 02:18:52;;;;;;;;;;;18.70;57.70;;;;;;5074517;28;1495;-64
2021/01/26 02:21:36;;;;;;;;;;;18.70;57.80;;;;;;5074705;28;1727;-65
2021/01/26 02:24:13;;;;;;;;;;;18.70;57.80;;;;;;5075395;28;1336;-66
2021/01/26 02:26:44;;;;;;;;;;;18.70;57.80;;;;;;5074328;28;1667;-64
2021/01/26 02:29:21;;;;;;;;;;;18.70;57.80;;;;;;5075550;28;1511;-65
2021/01/26 02:32:22;;;;;;;;;;;18.70;57.80;;;;;;5074420;28;1902;-65
2021/01/26 02:34:51;;;;;;;;;;;18.70;57.80;;;;;;5052669;28;1497;-65
2021/01/26 02:37:31;;;;;;;;;;;18.70;57.80;;;;;;5066601;28;1680;-64
2021/01/26 02:40:02;;;;;;;;;;;18.70;57.70;;;;;;5075402;28;1294;-64
2021/01/26 02:42:46;;;;;;;;;;;18.70;57.60;;;;;;5074152;28;1450;-64
2021/01/26 02:45:17;;;;;;;;;;;18.70;57.50;;;;;;5075153;28;1483;-67
2021/01/26 02:47:46;;;;;;;;;;;18.80;57.60;;;;;;5092265;28;1288;-64
2021/01/26 02:50:14;;;;;;;;;;;18.80;57.50;;;;;;5094817;28;1365;-64
2021/01/26 02:52:44;;;;;;;;;;;18.80;57.50;;;;;;5061176;28;1953;-67
2021/01/26 02:55:13;;;;;;;;;;;18.80;57.40;;;;;;5053634;28;1579;-67
2021/01/26 02:57:51;;;;;;;;;;;18.80;57.30;;;;;;5073710;28;1253;-64
2021/01/26 03:00:18;;;;;;;;;;;18.90;57.30;;;;;;5075357;28;1635;-66
2021/01/26 03:02:45;;;;;;;;;;;18.90;57.30;;;;;;5082355;28;1460;-67
2021/01/26 03:05:13;;;;;;;;;;;18.90;57.20;;;;;;5093101;28;1707;-65
2021/01/26 03:07:41;;;;;;;;;;;18.90;57.20;;;;;;5093863;28;1075;-64
2021/01/26 03:10:09;;;;;;;;;;;18.90;57.10;;;;;;5093817;28;1403;-65
2021/01/26 03:12:36;;;;;;;;;;;18.90;57.10;;;;;;5076919;28;1901;-64
2021/01/26 03:15:07;;;;;;;;;;;18.90;57.10;;;;;;5099179;22;3690;-67
2021/01/26 03:17:38;;;;;;;;;;;19.00;57.10;;;;;;5075891;28;977;-67
2021/01/26 03:20:23;;;;;;;;;;;19.00;57.10;;;;;;5059425;28;1329;-67
2021/01/26 03:22:50;;;;;;;;;;;19.00;57.10;;;;;;5093803;28;1338;-68
2021/01/26 03:25:16;;;;;;;;;;;19.00;57.10;;;;;;5094872;28;1358;-67
2021/01/26 03:27:42;;;;;;;;;;;19.00;57.10;;;;;;5089157;28;1394;-68
2021/01/26 03:30:10;;;;;;;;;;;19.00;57.00;;;;;;5076758;28;1403;-67
2021/01/26 03:32:36;;;;;;;;;;;19.00;57.00;;;;;;5094361;28;1914;-68
2021/01/26 03:35:02;;;;;;;;;;;19.00;57.00;;;;;;5076294;28;1421;-67
2021/01/26 03:37:28;;;;;;;;;;;19.00;57.00;;;;;;5094363;28;1307;-68
2021/01/26 03:39:53;;;;;;;;;;;19.00;57.00;;;;;;5094407;28;1353;-68
2021/01/26 03:42:19;;;;;;;;;;;19.00;57.00;;;;;;5094137;28;1416;-67
2021/01/26 03:44:46;;;;;;;;;;;19.00;57.10;;;;;;5076133;28;1451;-68
2021/01/26 03:47:11;;;;;;;;;;;19.00;57.10;;;;;;5093326;28;1304;-68
2021/01/26 03:49:39;;;;;;;;;;;19.00;57.10;;;;;;5093443;28;1306;-67
2021/01/26 03:52:11;;;;;;;;;;;19.00;57.10;;;;;;5094057;28;1907;-68
2021/01/26 03:54:36;;;;;;;;;;;19.00;57.10;;;;;;5093946;28;1268;-67
2021/01/26 03:57:14;;;;;;;;;;;19.00;57.10;;;;;;5057132;28;1499;-67
2021/01/26 03:59:39;;;;;;;;;;;19.00;57.10;;;;;;5075904;28;1207;-67
2021/01/26 04:02:07;;;;;;;;;;;19.00;57.10;;;;;;5093157;28;1084;-67
2021/01/26 04:04:40;;;;;;;;;;;19.00;57.10;;;;;;5093729;28;1272;-67
2021/01/26 04:07:06;;;;;;;;;;;19.00;57.20;;;;;;5075424;28;1140;-67
2021/01/26 04:09:37;;;;;;;;;;;18.90;57.10;;;;;;5075772;28;1358;-67
2021/01/26 04:12:04;;;;;;;;;;;18.90;57.10;;;;;;5075541;28;1910;-66
2021/01/26 04:14:30;;;;;;;;;;;19.00;57.20;;;;;;5055143;28;1480;-68
2021/01/26 04:17:00;;;;;;;;;;;18.90;57.10;;;;;;5073704;28;1433;-68
2021/01/26 04:19:28;;;;;;;;;;;18.90;57.10;;;;;;5075584;28;1064;-68
2021/01/26 04:21:53;;;;;;;;;;;18.90;57.10;;;;;;5075471;28;1310;-68
2021/01/26 04:24:19;;;;;;;;;;;18.90;57.10;;;;;;5093362;28;1284;-67
2021/01/26 04:26:44;;;;;;;;;;;18.90;57.20;;;;;;5093381;28;1131;-67
2021/01/26 04:29:10;;;;;;;;;;;18.90;57.20;;;;;;5075497;28;1052;-67
2021/01/26 04:31:35;;;;;;;;;;;18.90;57.20;;;;;;5093392;28;1971;-67
2021/01/26 04:34:01;;;;;;;;;;;18.90;57.20;;;;;;5075197;28;1360;-67
2021/01/26 04:36:26;;;;;;;;;;;18.90;57.20;;;;;;5093288;28;1040;-67
2021/01/26 04:38:52;;;;;;;;;;;18.90;57.20;;;;;;5093434;28;1087;-68
2021/01/26 04:41:26;;;;;;;;;;;18.90;57.20;;;;;;5093217;28;1182;-67
2021/01/26 04:44:25;;;;;;;;;;;18.90;57.20;;;;;;5075124;28;1307;-67
2021/01/26 04:46:58;;;;;;;;;;;18.90;57.30;;;;;;5039092;28;1139;-67
2021/01/26 04:49:26;;;;;;;;;;;18.90;57.30;;;;;;5073837;28;1324;-67
2021/01/26 04:51:57;;;;;;;;;;;18.90;57.20;;;;;;5074970;28;1968;-66
2021/01/26 04:54:42;;;;;;;;;;;18.90;57.20;;;;;;5074874;28;1365;-67
2021/01/26 04:57:07;;;;;;;;;;;18.90;57.30;;;;;;5092733;28;1055;-67
2021/01/26 04:59:58;;;;;;;;;;;18.90;57.30;;;;;;5093126;28;1131;-67
2021/01/26 05:02:28;;;;;;;;;;;18.90;57.30;;;;;;5075489;28;1399;-66
2021/01/26 05:05:01;;;;;;;;;;;18.90;57.30;;;;;;5074965;28;1288;-67
2021/01/26 05:07:30;;;;;;;;;;;18.90;57.30;;;;;;5092838;28;1250;-68
2021/01/26 05:10:06;;;;;;;;;;;18.90;57.30;;;;;;5074961;28;1151;-67
2021/01/26 05:12:35;;;;;;;;;;;18.90;57.30;;;;;;5075048;28;1902;-67
2021/01/26 05:15:01;;;;;;;;;;;18.90;57.30;;;;;;5076993;28;1354;-68
2021/01/26 05:17:32;;;;;;;;;;;18.90;57.30;;;;;;5079051;28;1299;-67
2021/01/26 05:19:59;;;;;;;;;;;18.90;57.30;;;;;;5078764;28;1036;-67
2021/01/26 05:22:25;;;;;;;;;;;18.90;57.30;;;;;;5078958;28;1282;-67
2021/01/26 05:24:54;;;;;;;;;;;18.90;57.30;;;;;;5096732;28;1496;-67
2021/01/26 05:27:20;;;;;;;;;;;18.90;57.30;;;;;;5078642;28;1159;-67
2021/01/26 05:29:45;;;;;;;;;;;18.90;57.30;;;;;;5078805;28;1171;-67
2021/01/26 05:32:11;;;;;;;;;;;18.90;57.20;;;;;;5078707;28;1906;-67
2021/01/26 05:34:37;;;;;;;;;;;18.90;57.20;;;;;;5078505;28;1369;-67
2021/01/26 05:37:06;;;;;;;;;;;18.90;57.20;;;;;;5096799;28;1102;-67
2021/01/26 05:39:37;;;;;;;;;;;18.90;57.20;;;;;;5078784;28;1302;-67
2021/01/26 05:42:02;;;;;;;;;;;18.90;57.20;;;;;;5080943;28;1083;-67
2021/01/26 05:44:28;;;;;;;;;;;18.90;57.20;;;;;;5078281;28;1318;-68
2021/01/26 05:46:54;;;;;;;;;;;18.90;57.20;;;;;;5078396;28;1306;-67
2021/01/26 05:49:32;;;;;;;;;;;18.90;57.20;;;;;;5058088;28;1520;-68
2021/01/26 05:51:58;;;;;;;;;;;18.90;57.10;;;;;;5089393;28;1906;-68
2021/01/26 05:54:23;;;;;;;;;;;18.90;57.20;;;;;;5078092;28;1286;-68
2021/01/26 05:56:52;;;;;;;;;;;18.90;57.20;;;;;;5078176;28;1087;-68
2021/01/26 05:59:18;;;;;;;;;;;18.90;57.20;;;;;;5065024;28;1164;-68
2021/01/26 06:01:44;;;;;;;;;;;18.90;57.20;;;;;;5078011;28;1115;-68
2021/01/26 06:04:16;;;;;;;;;;;18.90;57.20;;;;;;5096010;28;1345;-69
2021/01/26 06:06:54;;;;;;;;;;;18.90;57.20;;;;;;5095950;28;1127;-68
2021/01/26 06:09:26;;;;;;;;;;;18.90;57.20;;;;;;5078301;28;1313;-67
2021/01/26 06:12:02;;;;;;;;;;;18.90;57.20;;;;;;5095925;28;1975;-67
2021/01/26 06:14:28;;;;;;;;;;;18.90;57.20;;;;;;5078139;28;1437;-67
2021/01/26 06:16:59;;;;;;;;;;;18.90;57.20;;;;;;5060969;28;1187;-67
2021/01/26 06:19:24;;;;;;;;;;;18.90;57.20;;;;;;5078019;28;1351;-67
2021/01/26 06:21:50;;;;;;;;;;;18.90;57.20;;;;;;5095753;28;1115;-68
2021/01/26 06:24:16;;;;;;;;;;;18.90;57.20;;;;;;5095736;28;1350;-68
2021/01/26 06:26:41;;;;;;;;;;;18.90;57.20;;;;;;5070288;28;1095;-68
2021/01/26 06:29:09;;;;;;;;;;;18.90;57.20;;;;;;5077889;28;1167;-67
2021/01/26 06:31:57;;;;;;;;;;;18.90;57.80;;;;;;5077555;28;1973;-68
2021/01/26 06:34:41;;;;;;;;;;;18.90;57.20;;;;;;5095540;28;1334;-67
2021/01/26 06:37:06;;;;;;;;;;;18.90;57.20;;;;;;5095267;28;1369;-67
2021/01/26 06:39:32;;;;;;;;;;;18.90;57.20;;;;;;5095588;28;1369;-68
2021/01/26 06:42:11;;;;;;;;;;;19.00;57.30;;;;;;5095575;28;1397;-67
2021/01/26 06:44:43;;;;;;;;;;;18.90;57.20;;;;;;5077227;28;1236;-67
2021/01/26 06:47:21;;;;;;;;;;;18.90;57.10;;;;;;5095795;28;1155;-67
2021/01/26 06:49:47;;;;;;;;;;;19.00;57.10;;;;;;5077399;28;1186;-67
2021/01/26 06:52:31;;;;;;;;;;;19.00;57.10;;;;;;5095197;28;1961;-68
2021/01/26 06:55:02;;;;;;;;;;;19.00;57.00;;;;;;5095095;28;1365;-67
2021/01/26 06:57:41;;;;;;;;;;;19.00;56.90;;;;;;5095076;28;1326;-67
2021/01/26 07:00:07;;;;;;;;;;;19.00;56.90;;;;;;5056961;28;1140;-67
2021/01/26 07:02:51;;;;;;;;;;;19.00;56.90;;;;;;5095114;28;1127;-68
2021/01/26 07:05:28;;;;;;;;;;;19.10;56.90;;;;;;5094892;28;1366;-67
2021/01/26 07:07:53;;;;;;;;;;;19.10;56.90;;;;;;5076922;28;1064;-67
2021/01/26 07:10:37;;;;;;;;;;;19.10;56.90;;;;;;5094907;28;1071;-67
2021/01/26 07:13:08;;;;;;;;;;;19.10;56.90;;;;;;5094686;28;1898;-68
2021/01/26 07:15:34;;;;;;;;;;;19.10;56.90;;;;;;5094688;28;1385;-66
2021/01/26 07:18:14;;;;;;;;;;;19.10;56.90;;;;;;5094680;28;1126;-67
2021/01/26 07:20:49;;;;;;;;;;;19.10;56.90;;;;;;5094856;28;1351;-67
2021/01/26 07:23:21;;;;;;;;;;;19.10;56.90;;;;;;5055104;28;1747;-68
2021/01/26 07:25:52;;;;;;;;;;;19.10;56.80;;;;;;5074905;28;1283;-68
2021/01/26 07:28:24;;;;;;;;;;;19.10;56.80;;;;;;5074981;28;1377;-67
2021/01/26 07:30:51;;;;;;;;;;;19.10;56.90;;;;;;5074857;28;1910;-68
2021/01/26 07:33:20;;;;;;;;;;;19.10;56.90;;;;;;5073025;28;1952;-69
2021/01/26 07:35:45;;;;;;;;;;;19.10;56.90;;;;;;5069448;28;2158;-68
2021/01/26 07:38:10;;;;;;;;;;;19.10;56.90;;;;;;5078403;28;1293;-67
2021/01/26 07:40:41;;;;;;;;;;;19.10;56.90;;;;;;5088195;28;1185;-68
2021/01/26 07:43:18;;;;;;;;;;;19.10;56.90;;;;;;5074580;28;1280;-67
2021/01/26 07:45:54;;;;;;;;;;;19.10;56.90;;;;;;5068608;28;1382;-67
2021/01/26 07:48:28;;;;;;;;;;;19.10;56.90;;;;;;5074811;28;1092;-67
2021/01/26 07:50:54;;;;;;;;;;;19.10;56.90;;;;;;5073902;28;1957;-68
2021/01/26 07:53:32;;;;;;;;;;;19.10;56.90;;;;;;5075577;28;1385;-68
2021/01/26 07:56:19;;;;;;;;;;;19.10;56.90;;;;;;5073747;28;1711;-68
2021/01/26 07:58:44;;;;;;;;;;;19.10;56.90;;;;;;5074436;28;1302;-67
2021/01/26 08:01:10;;;;;;;;;;;19.10;56.90;;;;;;5074062;28;1379;-68
2021/01/26 08:03:35;;;;;;;;;;;19.10;56.90;;;;;;5073898;28;1115;-69
2021/01/26 08:06:01;;;;;;;;;;;19.10;57.00;;;;;;5091966;28;1258;-67
2021/01/26 08:08:29;;;;;;;;;;;19.10;56.90;;;;;;5092485;28;1304;-68
2021/01/26 08:11:25;;;;;;;;;;;19.00;56.90;;;;;;5093355;28;1929;-67
2021/01/26 08:13:55;;;;;;;;;;;19.00;56.90;;;;;;5067083;28;1443;-67
2021/01/26 08:16:20;;;;;;;;;;;19.00;56.90;;;;;;5093443;28;1297;-68
2021/01/26 08:18:47;;;;;;;;;;;19.00;56.90;;;;;;5093731;28;1293;-68
2021/01/26 08:21:28;;;;;;;;;;;19.00;56.90;;;;;;5075531;28;1377;-68
2021/01/26 08:24:17;;;;;;;;;;;19.00;57.00;;;;;;5075466;28;1295;-67
2021/01/26 08:26:42;;;;;;;;;;;19.00;57.00;;;;;;5093326;28;1422;-67
2021/01/26 08:29:08;;;;;;;;;;;19.00;57.00;;;;;;5093438;28;1354;-68
2021/01/26 08:31:34;;;;;;;;;;;19.00;57.00;;;;;;5093228;28;1906;-68
2021/01/26 08:34:18;;;;;;;;;;;19.00;57.00;;;;;;5093212;28;1362;-68
2021/01/26 08:36:44;;;;;;;;;;;19.00;57.00;;;;;;5093295;28;1134;-69
2021/01/26 08:39:13;;;;;;;;;;;19.00;57.00;;;;;;5093353;28;1274;-69
2021/01/26 08:41:42;;;;;;;;;;;19.00;57.00;;;;;;5093246;28;1283;-69
2021/01/26 08:44:09;;;;;;;;;;;19.00;57.10;;;;;;5075278;28;1368;-69
2021/01/26 08:46:36;;;;;;;;;;;19.00;57.00;;;;;;5075194;28;1345;-68
2021/01/26 08:49:15;;;;;;;;;;;19.00;57.00;;;;;;5074422;28;1392;-69
2021/01/26 08:51:41;;;;;;;;;;;19.00;57.10;;;;;;5075193;28;1901;-68
2021/01/26 08:54:06;;;;;;;;;;;19.00;57.10;;;;;;5092949;28;1394;-69
2021/01/26 08:56:32;;;;;;;;;;;19.00;57.10;;;;;;5093138;28;1268;-68
2021/01/26 08:58:58;;;;;;;;;;;19.00;57.10;;;;;;5074864;28;1115;-69
2021/01/26 09:01:23;;;;;;;;;;;19.00;57.10;;;;;;5075139;28;1343;-68
2021/01/26 09:03:49;;;;;;;;;;;19.00;57.10;;;;;;5074790;28;1370;-69
2021/01/26 09:06:26;;;;;;;;;;;19.00;57.10;;;;;;5074948;28;1311;-68
2021/01/26 09:08:56;;;;;;;;;;;19.00;57.10;;;;;;5092923;28;1255;-68
2021/01/26 09:11:22;;;;;;;;;;;19.00;57.10;;;;;;5077377;28;1902;-66
2021/01/26 09:13:47;;;;;;;;;;;19.00;57.10;;;;;;5084457;28;1303;-69
2021/01/26 09:16:23;;;;;;;;;;;19.00;57.10;;;;;;5075291;28;1338;-66
2021/01/26 09:18:52;;;;;;;;;;;19.00;57.10;;;;;;5074493;28;1310;-65
2021/01/26 09:21:18;;;;;;;;;;;19.00;57.10;;;;;;5074552;28;1322;-66
2021/01/26 09:23:43;;;;;;;;;;;19.00;57.00;;;;;;5092631;28;1325;-67
2021/01/26 09:26:12;;;;;;;;;;;19.00;56.90;;;;;;5092687;28;1223;-71
2021/01/26 09:28:38;;;;;;;;;;;19.00;56.90;;;;;;5074996;28;1346;-70
2021/01/26 09:31:04;;;;;;;;;;;19.10;56.90;;;;;;5074629;28;1909;-68
2021/01/26 09:33:29;;;;;;;;;;;19.10;56.80;;;;;;5072403;28;1283;-67
2021/01/26 09:36:01;;;;;;;;;;;19.10;56.80;;;;;;5073429;28;1330;-68
2021/01/26 09:38:26;;;;;;;;;;;19.10;56.70;;;;;;5092460;28;1154;-67
2021/01/26 09:40:56;;;;;;;;;;;19.10;56.70;;;;;;5092874;28;1224;-67
2021/01/26 09:43:22;;;;;;;;;;;19.10;56.70;;;;;;5074842;28;930;-67
2021/01/26 09:46:01;;;;;;;;;;;19.10;56.70;;;;;;5074610;28;1301;-68
2021/01/26 09:48:31;;;;;;;;;;;19.10;56.70;;;;;;5074696;28;1437;-68
2021/01/26 09:51:00;;;;;;;;;;;19.10;56.70;;;;;;5069739;28;1965;-67
2021/01/26 09:53:25;;;;;;;;;;;19.10;56.70;;;;;;5066017;28;1188;-67
2021/01/26 09:55:51;;;;;;;;;;;19.10;56.60;;;;;;5092351;28;1322;-67
2021/01/26 09:58:17;;;;;;;;;;;19.10;56.60;;;;;;5092660;28;807;-68
2021/01/26 10:00:42;;;;;;;;;;;19.10;56.60;;;;;;5094440;28;1137;-67
2021/01/26 10:03:08;;;;;;;;;;;19.10;56.70;;;;;;5078200;28;1112;-67
2021/01/26 10:05:33;;;;;;;;;;;19.10;56.60;;;;;;5091687;28;1234;-67
2021/01/26 10:08:06;;;;;;;;;;;19.10;56.50;;;;;;5078162;28;1185;-67
2021/01/26 10:10:31;;;;;;;;;;;19.20;56.60;;;;;;5078228;28;1005;-67
2021/01/26 10:12:56;;;;;;;;;;;19.20;56.50;;;;;;5096092;28;1898;-67
2021/01/26 10:15:30;;;;;;;;;;;19.30;56.50;;;;;;5095840;28;1203;-67
2021/01/26 10:18:02;;;;;;;;;;;19.40;56.30;;;;;;5096142;28;1103;-68
2021/01/26 10:20:28;;;;;;;;;;;19.50;56.10;;;;;;5078224;28;1126;-67
2021/01/26 10:23:03;;;;;;;;;;;19.60;55.90;;;;;;5082376;28;1216;-67
2021/01/26 10:25:28;;;;;;;;;;;19.70;55.70;;;;;;5095587;28;1181;-67
2021/01/26 10:28:03;;;;;;;;;;;19.80;55.50;;;;;;5059334;28;1158;-68
2021/01/26 10:30:29;;;;;;;;;;;19.90;55.30;;;;;;5074279;28;1167;-68
2021/01/26 10:32:54;;;;;;;;;;;19.90;55.10;;;;;;5089216;28;1906;-69
2021/01/26 10:35:21;;;;;;;;;;;20.00;54.90;;;;;;5084410;28;1259;-69
2021/01/26 10:37:46;;;;;;;;;;;20.10;54.80;;;;;;5077466;28;1136;-69
2021/01/26 10:40:14;;;;;;;;;;;20.20;54.60;;;;;;5095643;28;1142;-69
2021/01/26 10:42:39;;;;;;;;;;;20.20;54.50;;;;;;5095618;28;1337;-69
2021/01/26 10:45:05;;;;;;;;;;;20.30;54.30;;;;;;5077283;28;1319;-68
2021/01/26 10:47:38;;;;;;;;;;;20.30;54.30;;;;;;5077172;28;1314;-69
2021/01/26 10:50:05;;;;;;;;;;;20.40;54.30;;;;;;5057382;28;1731;-68
2021/01/26 10:52:34;;;;;;;;;;;20.40;54.20;;;;;;5074647;28;1961;-68
2021/01/26 10:54:59;;;;;;;;;;;20.40;54.10;;;;;;5095345;28;1337;-68
2021/01/26 10:57:25;;;;;;;;;;;20.40;54.00;;;;;;5095534;28;1118;-68
2021/01/26 10:59:50;;;;;;;;;;;20.50;53.90;;;;;;5095597;28;1285;-67
2021/01/26 11:02:16;;;;;;;;;;;20.50;53.90;;;;;;5090655;28;1103;-67
2021/01/26 11:04:41;;;;;;;;;;;20.60;53.90;;;;;;5086359;28;1335;-68
2021/01/26 11:07:06;;;;;;;;;;;20.60;53.80;;;;;;5095037;28;1336;-68
2021/01/26 11:09:32;;;;;;;;;;;20.60;53.80;;;;;;5095113;28;1154;-68
2021/01/26 11:11:57;;;;;;;;;;;20.60;53.70;;;;;;5094046;28;1905;-68
2021/01/26 11:14:23;;;;;;;;;;;20.60;53.70;;;;;;5094595;28;1353;-68
2021/01/26 11:16:48;;;;;;;;;;;20.60;53.60;;;;;;5094756;28;1138;-68
2021/01/26 11:19:15;;;;;;;;;;;20.70;53.70;;;;;;5094964;28;1389;-68
2021/01/26 11:21:40;;;;;;;;;;;20.70;53.60;;;;;;5076949;28;1147;-67
2021/01/26 11:24:06;;;;;;;;;;;20.70;53.60;;;;;;5076629;28;1439;-68
2021/01/26 11:26:31;;;;;;;;;;;20.70;53.50;;;;;;5094424;28;1091;-68
2021/01/26 11:28:57;;;;;;;;;;;20.80;53.60;;;;;;5095278;28;1356;-68
2021/01/26 11:31:22;;;;;;;;;;;20.80;53.50;;;;;;5095002;28;1914;-68
2021/01/26 11:33:48;;;;;;;;;;;20.80;53.50;;;;;;5094867;28;1333;-68
2021/01/26 11:36:13;;;;;;;;;;;20.80;53.50;;;;;;5076313;28;1363;-68
2021/01/26 11:38:39;;;;;;;;;;;20.80;53.50;;;;;;5094455;28;1107;-68
2021/01/26 11:41:04;;;;;;;;;;;20.80;53.40;;;;;;5076374;28;1303;-68
2021/01/26 11:43:30;;;;;;;;;;;20.80;53.40;;;;;;5094193;28;1178;-68
2021/01/26 11:45:56;;;;;;;;;;;20.80;53.40;;;;;;5094023;28;1218;-68
2021/01/26 11:48:21;;;;;;;;;;;20.80;53.40;;;;;;5094165;28;1233;-68
2021/01/26 11:50:47;;;;;;;;;;;20.90;53.40;;;;;;5094193;28;1109;-68
2021/01/26 11:53:13;;;;;;;;;;;20.90;53.40;;;;;;5076038;28;1898;-68
2021/01/26 11:55:38;;;;;;;;;;;20.90;53.40;;;;;;5075897;28;1413;-68
2021/01/26 11:58:04;;;;;;;;;;;20.90;53.40;;;;;;5075603;28;1095;-68
2021/01/26 12:00:31;;;;;;;;;;;20.90;53.30;;;;;;5089532;28;1401;-69
2021/01/26 12:02:57;;;;;;;;;;;20.90;53.30;;;;;;5059077;28;1367;-68
2021/01/26 12:05:23;;;;;;;;;;;20.90;53.30;;;;;;5058809;28;1389;-68
2021/01/26 12:07:49;;;;;;;;;;;20.90;53.30;;;;;;5075763;28;1342;-68
2021/01/26 12:10:15;;;;;;;;;;;21.00;53.30;;;;;;5093938;28;1237;-68
2021/01/26 12:12:40;;;;;;;;;;;21.00;53.30;;;;;;5075417;28;1981;-69
2021/01/26 12:15:06;;;;;;;;;;;20.90;53.30;;;;;;5093568;28;1556;-68
2021/01/26 12:17:31;;;;;;;;;;;21.00;53.40;;;;;;5090185;28;2033;-69
2021/01/26 12:19:57;;;;;;;;;;;20.90;53.30;;;;;;5084305;28;925;-69
2021/01/26 12:22:22;;;;;;;;;;;21.00;53.40;;;;;;5093686;28;1314;-68
2021/01/26 12:24:48;;;;;;;;;;;20.90;53.40;;;;;;5093165;28;1342;-68
2021/01/26 12:27:13;;;;;;;;;;;20.90;53.40;;;;;;5093777;28;1242;-68
2021/01/26 12:29:39;;;;;;;;;;;20.90;53.40;;;;;;5093480;28;1306;-68
2021/01/26 12:32:04;;;;;;;;;;;20.90;53.50;;;;;;5092784;28;1914;-68
2021/01/26 12:34:29;;;;;;;;;;;20.90;53.50;;;;;;5092338;28;1267;-68
2021/01/26 12:36:55;;;;;;;;;;;20.90;53.60;;;;;;5093399;28;1319;-68
2021/01/26 12:39:20;;;;;;;;;;;20.80;53.60;;;;;;5093499;28;1306;-68
2021/01/26 12:41:46;;;;;;;;;;;20.80;53.60;;;;;;5075290;28;1327;-68
2021/01/26 12:44:11;;;;;;;;;;;20.80;53.70;;;;;;5093108;28;1306;-68
2021/01/26 12:46:38;;;;;;;;;;;20.80;53.70;;;;;;5075340;28;1405;-68
2021/01/26 12:49:04;;;;;;;;;;;20.80;53.80;;;;;;5075483;28;1526;-68
2021/01/26 12:51:29;;;;;;;;;;;20.80;53.80;;;;;;5093261;28;1961;-68
2021/01/26 12:53:56;;;;;;;;;;;20.80;53.90;;;;;;5093069;28;1247;-68
2021/01/26 12:56:22;;;;;;;;;;;20.70;53.90;;;;;;5092880;28;1283;-68
2021/01/26 12:58:47;;;;;;;;;;;20.70;53.90;;;;;;5093202;28;1028;-68
2021/01/26 13:01:12;;;;;;;;;;;20.70;54.00;;;;;;5093060;28;1291;-68
2021/01/26 13:03:38;;;;;;;;;;;20.70;54.00;;;;;;5075100;28;1334;-68
2021/01/26 13:06:03;;;;;;;;;;;20.60;54.00;;;;;;5093411;28;1188;-68
2021/01/26 13:08:29;;;;;;;;;;;20.60;54.10;;;;;;5075195;28;1303;-69
2021/01/26 13:10:54;;;;;;;;;;;20.60;54.10;;;;;;5092955;28;1909;-67
2021/01/26 13:13:20;;;;;;;;;;;20.60;54.20;;;;;;5093601;28;1316;-67
2021/01/26 13:15:45;;;;;;;;;;;20.60;54.30;;;;;;5075304;28;1328;-68
2021/01/26 13:18:11;;;;;;;;;;;20.60;54.30;;;;;;5094010;28;1397;-68
2021/01/26 13:20:38;;;;;;;;;;;20.50;54.30;;;;;;5093256;28;1275;-68
2021/01/26 13:23:04;;;;;;;;;;;20.50;54.40;;;;;;5093038;28;1040;-67
2021/01/26 13:25:29;;;;;;;;;;;20.50;54.40;;;;;;5074423;28;1336;-67
2021/01/26 13:27:55;;;;;;;;;;;20.50;54.40;;;;;;5092764;28;1330;-67
2021/01/26 13:30:21;;;;;;;;;;;20.50;54.40;;;;;;5074950;28;1287;-67
2021/01/26 13:32:47;;;;;;;;;;;20.50;54.50;;;;;;5092750;28;1901;-68
2021/01/26 13:35:14;;;;;;;;;;;20.50;54.50;;;;;;5075803;28;1286;-68
2021/01/26 13:37:39;;;;;;;;;;;20.40;54.60;;;;;;5079073;28;1390;-68
2021/01/26 13:40:06;;;;;;;;;;;20.40;54.60;;;;;;5096690;28;1413;-68
2021/01/26 13:42:31;;;;;;;;;;;20.40;54.60;;;;;;5078511;28;1394;-68
2021/01/26 13:44:56;;;;;;;;;;;20.40;54.70;;;;;;5096519;28;1369;-68
2021/01/26 13:47:22;;;;;;;;;;;20.40;54.70;;;;;;5096431;28;1354;-68
2021/01/26 13:49:47;;;;;;;;;;;20.30;54.70;;;;;;5078620;28;1291;-68
2021/01/26 13:52:14;;;;;;;;;;;20.30;54.70;;;;;;5096442;28;1953;-68
2021/01/26 13:54:39;;;;;;;;;;;20.30;54.80;;;;;;5095978;28;1410;-68
2021/01/26 13:57:05;;;;;;;;;;;20.30;54.80;;;;;;5096247;28;1267;-68
2021/01/26 13:59:31;;;;;;;;;;;20.30;54.90;;;;;;5078331;28;1292;-68
2021/01/26 14:01:56;;;;;;;;;;;20.20;54.90;;;;;;5096418;28;1341;-68
2021/01/26 14:04:22;;;;;;;;;;;20.20;54.90;;;;;;5096231;28;1329;-68
2021/01/26 14:06:47;;;;;;;;;;;20.20;55.00;;;;;;5055082;28;1267;-66
2021/01/26 14:09:14;;;;;;;;;;;20.20;55.00;;;;;;5066104;28;1039;-66
2021/01/26 14:11:39;;;;;;;;;;;20.20;55.00;;;;;;5077183;28;1938;-66
2021/01/26 14:14:05;;;;;;;;;;;20.20;55.10;;;;;;5076518;28;1351;-66
2021/01/26 14:16:30;;;;;;;;;;;20.10;55.10;;;;;;5076153;28;1550;-66
2021/01/26 14:18:56;;;;;;;;;;;20.10;55.10;;;;;;5094736;28;1290;-67
2021/01/26 14:21:21;;;;;;;;;;;20.20;55.20;;;;;;5093825;28;1340;-66
2021/01/26 14:23:47;;;;;;;;;;;20.10;55.20;;;;;;5075344;28;1382;-67
2021/01/26 14:26:12;;;;;;;;;;;20.10;55.20;;;;;;5053631;28;1367;-67
2021/01/26 14:28:37;;;;;;;;;;;20.10;55.30;;;;;;5094644;28;1339;-66
2021/01/26 14:31:03;;;;;;;;;;;20.10;55.30;;;;;;5094167;28;1913;-67
2021/01/26 14:33:28;;;;;;;;;;;20.10;55.30;;;;;;5093777;28;1138;-67
2021/01/26 14:35:54;;;;;;;;;;;20.00;55.30;;;;;;5093446;28;1210;-67
2021/01/26 14:38:19;;;;;;;;;;;20.00;55.40;;;;;;5076033;28;1416;-68